ePrivacy and GPDR Cookie Consent by Cookie Consent
EmailTwitter


Surface observations / Quebec / CYUL (71627)

Regions: Quebec | Canada | USA | Europe | France | UK | Elsewhere
Station
Display
Info & Location for CYUL (71627) | Help decoding METAR

Weather Conditions observed on 2022/10/03 at 23:00 UTC at MONTREAL INTL A, QB (CYUL)

Sky conditions: few clouds.

Temperature: 11.0 Celsius.

Dewpoint: 2.0 Celsius.

Relative Humidity: 54%

Winds: Southwest at 7 km/h or 4 knots.

Mean Sea level Pressure: 102.60 kilopascals.

Altimeter Setting (QNH): 102.57 kilopascals or 30.29 inches of mercury.

Horizontal visibility: 15.00 statute miles or 24.00 kilometers.

Coded METAR:

CYUL 032300Z 21004KT 15SM FEW250 11/02 A3029 RMK CI2 SLP260=